Time;durP1;ratioP1;P1;durP2;ratioP2;P2;SDS_P1;SDS_P2;PMS_P1;PMS_P2;Temp;Humidity;BMP_temperature;BMP_pressure;BME280_temperature;BME280_humidity;BME280_pressure;Samples;Min_cycle;Max_cycle;Signal;HPM_P1;HPM_P2
2021/11/20 00:00:07;;;;;;;39.20;14.73;;;;;;;;;;5051249;28;20049;-62
2021/11/20 00:02:33;;;;;;;34.63;14.02;;;;;;;;;;5057105;28;20045;-62
2021/11/20 00:05:02;;;;;;;40.30;16.00;;;;;;;;;;5050344;28;20057;-62
2021/11/20 00:07:29;;;;;;;45.03;15.50;;;;;;;;;;5051846;28;20076;-63
2021/11/20 00:09:55;;;;;;;48.30;16.88;;;;;;;;;;5049850;28;20040;-63
2021/11/20 00:12:23;;;;;;;46.50;16.40;;;;;;;;;;5049023;28;20045;-63
2021/11/20 00:14:49;;;;;;;51.30;18.08;;;;;;;;;;5051983;28;20516;-62
2021/11/20 00:17:16;;;;;;;57.55;17.50;;;;;;;;;;5050199;28;20059;-62
2021/11/20 00:19:43;;;;;;;48.15;16.58;;;;;;;;;;5051820;28;20080;-62
2021/11/20 00:22:12;;;;;;;48.17;16.17;;;;;;;;;;5051782;28;20397;-62
2021/11/20 00:24:48;;;;;;;39.72;16.80;;;;;;;;;;5049734;28;20048;-62
2021/11/20 00:27:18;;;;;;;43.42;15.93;;;;;;;;;;5050164;28;20139;-62
2021/11/20 00:29:47;;;;;;;42.03;16.88;;;;;;;;;;5051490;28;20124;-62
2021/11/20 00:32:16;;;;;;;38.42;15.25;;;;;;;;;;5051899;28;20059;-62
2021/11/20 00:34:43;;;;;;;38.75;16.60;;;;;;;;;;5050941;28;20055;-62
2021/11/20 00:37:10;;;;;;;53.20;17.58;;;;;;;;;;5052009;28;20065;-62
2021/11/20 00:39:37;;;;;;;47.15;17.30;;;;;;;;;;5051690;28;20119;-62
2021/11/20 00:42:04;;;;;;;51.30;17.42;;;;;;;;;;5049721;28;20132;-62
2021/11/20 00:44:30;;;;;;;57.05;16.38;;;;;;;;;;5050868;28;20045;-62
2021/11/20 00:46:57;;;;;;;49.13;16.35;;;;;;;;;;5049278;28;20045;-62
2021/11/20 00:49:23;;;;;;;45.53;17.08;;;;;;;;;;5051914;28;20043;-62
2021/11/20 00:51:50;;;;;;;49.80;17.15;;;;;;;;;;5047650;28;20144;-62
2021/11/20 00:54:17;;;;;;;57.03;19.52;;;;;;;;;;5047527;28;20060;-63
2021/11/20 00:56:43;;;;;;;58.05;18.92;;;;;;;;;;5049290;28;20049;-62
2021/11/20 00:59:10;;;;;;;48.78;18.83;;;;;;;;;;5050159;28;20218;-62
2021/11/20 01:01:39;;;;;;;51.78;20.10;;;;;;;;;;5052802;28;20381;-62
2021/11/20 01:04:06;;;;;;;58.42;20.58;;;;;;;;;;5050691;28;20125;-62
2021/11/20 01:06:32;;;;;;;54.22;20.27;;;;;;;;;;5051081;28;20479;-62
2021/11/20 01:08:59;;;;;;;60.88;20.13;;;;;;;;;;5044577;28;20063;-62
2021/11/20 01:11:28;;;;;;;60.30;20.30;;;;;;;;;;5050774;28;20060;-62
2021/11/20 01:13:55;;;;;;;60.92;19.95;;;;;;;;;;5049675;28;20068;-62
2021/11/20 01:16:22;;;;;;;52.53;19.35;;;;;;;;;;5050121;28;20124;-62
2021/11/20 01:18:49;;;;;;;60.00;20.13;;;;;;;;;;5054643;28;20045;-62
2021/11/20 01:21:15;;;;;;;58.67;21.23;;;;;;;;;;5054739;28;20040;-62
2021/11/20 01:23:42;;;;;;;57.70;19.92;;;;;;;;;;5054887;28;20112;-62
2021/11/20 01:26:09;;;;;;;58.38;21.45;;;;;;;;;;5048710;28;22688;-62
2021/11/20 01:28:36;;;;;;;63.63;20.23;;;;;;;;;;5052777;28;20408;-62
2021/11/20 01:31:04;;;;;;;58.20;20.17;;;;;;;;;;5055364;28;20036;-62
2021/11/20 01:33:31;;;;;;;57.88;19.77;;;;;;;;;;5052766;28;20106;-62
2021/11/20 01:35:57;;;;;;;53.88;18.42;;;;;;;;;;5054229;28;20056;-62
2021/11/20 01:38:24;;;;;;;60.35;20.25;;;;;;;;;;5053996;28;20040;-62
2021/11/20 01:40:50;;;;;;;55.00;21.58;;;;;;;;;;5055290;28;20048;-62
2021/11/20 01:43:16;;;;;;;51.38;19.83;;;;;;;;;;5053702;28;20043;-63
2021/11/20 01:45:51;;;;;;;51.97;20.50;;;;;;;;;;5052880;28;20441;-62
2021/11/20 01:48:36;;;;;;;68.07;20.88;;;;;;;;;;5052318;28;20079;-62
2021/11/20 01:51:07;;;;;;;53.78;20.52;;;;;;;;;;5051414;28;20373;-63
2021/11/20 01:53:38;;;;;;;55.30;20.02;;;;;;;;;;5052918;28;20040;-62
2021/11/20 01:56:09;;;;;;;64.45;21.60;;;;;;;;;;5052655;28;20037;-63
2021/11/20 01:58:42;;;;;;;59.45;21.75;;;;;;;;;;5050322;28;20047;-62
2021/11/20 02:01:08;;;;;;;61.58;23.33;;;;;;;;;;5055791;28;20135;-62
2021/11/20 02:03:39;;;;;;;65.50;21.48;;;;;;;;;;5053208;28;20370;-62
2021/11/20 02:06:11;;;;;;;55.80;20.88;;;;;;;;;;5053051;28;20067;-62
2021/11/20 02:08:47;;;;;;;58.55;20.70;;;;;;;;;;5035066;28;20068;-62
2021/11/20 02:11:25;;;;;;;54.83;20.05;;;;;;;;;;5053555;28;20501;-62
2021/11/20 02:13:51;;;;;;;49.88;19.63;;;;;;;;;;5053894;28;20041;-62
2021/11/20 02:16:21;;;;;;;49.20;19.70;;;;;;;;;;5051579;28;20079;-62
2021/11/20 02:18:49;;;;;;;62.95;21.25;;;;;;;;;;5053447;28;20554;-62
2021/11/20 02:21:19;;;;;;;51.45;19.00;;;;;;;;;;5053136;28;20148;-62
2021/11/20 02:23:45;;;;;;;52.15;18.70;;;;;;;;;;5053156;28;20123;-62
2021/11/20 02:26:11;;;;;;;50.78;18.65;;;;;;;;;;5051762;28;20049;-62
2021/11/20 02:28:39;;;;;;;55.90;19.45;;;;;;;;;;5053277;28;20139;-62
2021/11/20 02:31:06;;;;;;;44.45;18.25;;;;;;;;;;5052497;28;20053;-62
2021/11/20 02:33:35;;;;;;;40.10;17.83;;;;;;;;;;5047693;28;20125;-62
2021/11/20 02:36:05;;;;;;;37.17;17.38;;;;;;;;;;5051923;28;20053;-62
2021/11/20 02:38:36;;;;;;;49.25;18.55;;;;;;;;;;5054251;28;20449;-62
2021/11/20 02:41:02;;;;;;;51.70;18.92;;;;;;;;;;5052422;28;20056;-63
2021/11/20 02:43:31;;;;;;;51.38;19.83;;;;;;;;;;5054276;28;20045;-62
2021/11/20 02:45:57;;;;;;;49.10;19.83;;;;;;;;;;5051475;28;20049;-62
2021/11/20 02:48:24;;;;;;;44.03;18.52;;;;;;;;;;5052447;28;20052;-62
2021/11/20 02:50:52;;;;;;;49.60;18.92;;;;;;;;;;5053166;28;20048;-62
2021/11/20 02:53:20;;;;;;;46.17;18.45;;;;;;;;;;5053523;28;20118;-62
2021/11/20 02:55:47;;;;;;;44.90;19.25;;;;;;;;;;5052029;28;20037;-62
2021/11/20 02:58:14;;;;;;;43.38;18.58;;;;;;;;;;5052895;28;20166;-63
2021/11/20 03:00:40;;;;;;;44.83;17.55;;;;;;;;;;5053923;28;20041;-62
2021/11/20 03:03:06;;;;;;;38.08;19.17;;;;;;;;;;5057697;28;20075;-62
2021/11/20 03:05:33;;;;;;;39.35;18.08;;;;;;;;;;5052728;28;20090;-62
2021/11/20 03:07:59;;;;;;;42.50;17.27;;;;;;;;;;5050724;28;20048;-63
2021/11/20 03:10:25;;;;;;;47.78;17.48;;;;;;;;;;5049178;28;20132;-62
2021/11/20 03:12:52;;;;;;;42.13;17.35;;;;;;;;;;5050016;28;20412;-62
2021/11/20 03:15:18;;;;;;;46.10;18.65;;;;;;;;;;5055232;28;20039;-63
2021/11/20 03:17:44;;;;;;;41.58;19.83;;;;;;;;;;5048889;28;20057;-62
2021/11/20 03:20:12;;;;;;;57.80;20.40;;;;;;;;;;5049911;28;20127;-62
2021/11/20 03:22:41;;;;;;;45.80;19.27;;;;;;;;;;5054157;28;20041;-62
2021/11/20 03:25:07;;;;;;;42.63;19.05;;;;;;;;;;5050526;28;20456;-62
2021/11/20 03:27:35;;;;;;;41.78;19.83;;;;;;;;;;5054195;28;20377;-62
2021/11/20 03:30:01;;;;;;;45.95;20.65;;;;;;;;;;5050289;28;20116;-63
2021/11/20 03:32:28;;;;;;;52.42;20.90;;;;;;;;;;5052103;28;20497;-63
2021/11/20 03:34:54;;;;;;;44.53;19.77;;;;;;;;;;5052327;28;20041;-62
2021/11/20 03:37:22;;;;;;;54.10;20.40;;;;;;;;;;5048633;28;20060;-62
2021/11/20 03:39:49;;;;;;;52.10;21.83;;;;;;;;;;5049470;28;20049;-62
2021/11/20 03:42:15;;;;;;;58.28;22.05;;;;;;;;;;5052123;28;20102;-62
2021/11/20 03:44:42;;;;;;;46.92;20.92;;;;;;;;;;5049639;28;20484;-63
2021/11/20 03:47:08;;;;;;;51.75;21.20;;;;;;;;;;5050369;28;20048;-62
2021/11/20 03:49:34;;;;;;;55.75;20.58;;;;;;;;;;5050093;28;20484;-62
2021/11/20 03:52:01;;;;;;;50.33;22.33;;;;;;;;;;5052019;28;20044;-62
2021/11/20 03:54:27;;;;;;;50.22;21.75;;;;;;;;;;5052620;28;20041;-62
2021/11/20 03:56:53;;;;;;;48.13;21.85;;;;;;;;;;5050454;28;20052;-63
2021/11/20 03:59:20;;;;;;;49.78;20.38;;;;;;;;;;5050564;28;20052;-63
2021/11/20 04:01:46;;;;;;;51.85;21.38;;;;;;;;;;5053319;28;20127;-62
2021/11/20 04:04:12;;;;;;;48.75;19.25;;;;;;;;;;5052701;28;20048;-62
2021/11/20 04:06:39;;;;;;;60.33;21.13;;;;;;;;;;5051107;28;20053;-62
2021/11/20 04:09:12;;;;;;;50.75;21.70;;;;;;;;;;5049409;28;20060;-63
2021/11/20 04:11:38;;;;;;;55.03;22.10;;;;;;;;;;5052585;28;20045;-62
2021/11/20 04:14:04;;;;;;;49.90;20.98;;;;;;;;;;5053705;28;20037;-62
2021/11/20 04:16:32;;;;;;;54.15;21.58;;;;;;;;;;5054138;28;20511;-62
2021/11/20 04:18:58;;;;;;;52.80;21.23;;;;;;;;;;5047579;28;20116;-62
2021/11/20 04:21:25;;;;;;;54.08;22.00;;;;;;;;;;5049860;28;20215;-62
2021/11/20 04:23:51;;;;;;;50.58;20.02;;;;;;;;;;5051245;28;20144;-62
2021/11/20 04:26:19;;;;;;;50.20;20.67;;;;;;;;;;5050844;28;20041;-62
2021/11/20 04:28:45;;;;;;;51.40;20.67;;;;;;;;;;5054173;28;20119;-62
2021/11/20 04:31:12;;;;;;;46.45;20.50;;;;;;;;;;5056280;28;20372;-62
2021/11/20 04:33:39;;;;;;;50.25;20.33;;;;;;;;;;5049784;28;20048;-63
2021/11/20 04:36:05;;;;;;;54.47;19.25;;;;;;;;;;5051467;28;20041;-63
2021/11/20 04:38:31;;;;;;;52.33;21.00;;;;;;;;;;5045785;28;20072;-62
2021/11/20 04:40:57;;;;;;;42.28;19.80;;;;;;;;;;5045341;28;21211;-62
2021/11/20 04:43:24;;;;;;;51.58;21.27;;;;;;;;;;5051615;28;20098;-62
2021/11/20 04:45:52;;;;;;;50.58;20.25;;;;;;;;;;5050441;28;20049;-62
2021/11/20 04:48:18;;;;;;;56.67;21.95;;;;;;;;;;5048596;28;20041;-62
2021/11/20 04:50:45;;;;;;;52.22;21.05;;;;;;;;;;5050413;28;20213;-63
2021/11/20 04:53:11;;;;;;;53.13;21.88;;;;;;;;;;5052734;28;20055;-62
2021/11/20 04:55:38;;;;;;;66.80;21.50;;;;;;;;;;5054303;28;20060;-62
2021/11/20 04:58:04;;;;;;;58.60;22.50;;;;;;;;;;5053005;28;20052;-62
2021/11/20 05:00:34;;;;;;;62.03;23.33;;;;;;;;;;5052836;28;20040;-62
2021/11/20 05:03:05;;;;;;;57.22;22.88;;;;;;;;;;5055072;28;20502;-62
2021/11/20 05:05:31;;;;;;;63.60;24.35;;;;;;;;;;5053760;28;20055;-62
2021/11/20 05:07:58;;;;;;;58.65;23.50;;;;;;;;;;5061361;28;20099;-62
2021/11/20 05:10:24;;;;;;;56.20;23.92;;;;;;;;;;5054825;28;20041;-63
2021/11/20 05:12:50;;;;;;;60.00;24.45;;;;;;;;;;5053062;28;20056;-62
2021/11/20 05:15:16;;;;;;;62.00;25.98;;;;;;;;;;5053665;28;20186;-62
2021/11/20 05:17:43;;;;;;;53.85;24.50;;;;;;;;;;5054624;28;20439;-62
2021/11/20 05:20:09;;;;;;;55.13;23.27;;;;;;;;;;5057681;28;20428;-62
2021/11/20 05:22:35;;;;;;;51.88;24.88;;;;;;;;;;5055373;28;20514;-62
2021/11/20 05:25:02;;;;;;;53.42;23.90;;;;;;;;;;5053382;28;20045;-62
2021/11/20 05:27:28;;;;;;;59.05;25.95;;;;;;;;;;5053349;28;20052;-62
2021/11/20 05:30:02;;;;;;;50.70;24.80;;;;;;;;;;5053397;28;20447;-62
2021/11/20 05:32:29;;;;;;;43.03;24.50;;;;;;;;;;5051722;28;20088;-62
2021/11/20 05:34:55;;;;;;;54.63;24.48;;;;;;;;;;5059747;28;20452;-62
2021/11/20 05:37:21;;;;;;;46.65;22.85;;;;;;;;;;5054730;28;20756;-62
2021/11/20 05:39:47;;;;;;;55.95;25.20;;;;;;;;;;5052310;28;20041;-62
2021/11/20 05:42:13;;;;;;;51.83;24.85;;;;;;;;;;5054265;28;20040;-62
2021/11/20 05:44:40;;;;;;;56.40;26.40;;;;;;;;;;5053485;28;20040;-62
2021/11/20 05:47:06;;;;;;;54.70;25.50;;;;;;;;;;5054138;28;20146;-62
2021/11/20 05:49:34;;;;;;;47.90;23.52;;;;;;;;;;5053320;28;20099;-62
2021/11/20 05:52:01;;;;;;;50.67;23.73;;;;;;;;;;5053359;28;20076;-62
2021/11/20 05:54:28;;;;;;;55.58;23.92;;;;;;;;;;5053137;28;20044;-62
2021/11/20 05:56:54;;;;;;;39.83;23.42;;;;;;;;;;5053158;28;20041;-62
2021/11/20 05:59:20;;;;;;;49.00;24.40;;;;;;;;;;5054593;28;20029;-62
2021/11/20 06:01:47;;;;;;;43.75;24.00;;;;;;;;;;5050905;28;20083;-62
2021/11/20 06:04:13;;;;;;;50.38;23.00;;;;;;;;;;5052892;28;20044;-62
2021/11/20 06:06:40;;;;;;;48.40;23.85;;;;;;;;;;5055823;28;20049;-63
2021/11/20 06:09:06;;;;;;;41.50;22.45;;;;;;;;;;5051493;28;20049;-62
2021/11/20 06:11:33;;;;;;;44.65;22.27;;;;;;;;;;5054802;28;20102;-63
2021/11/20 06:13:59;;;;;;;36.92;21.35;;;;;;;;;;5051765;28;20389;-62
2021/11/20 06:16:25;;;;;;;49.33;21.60;;;;;;;;;;5053488;28;20041;-62
2021/11/20 06:18:51;;;;;;;40.60;23.35;;;;;;;;;;5052589;28;20552;-62
2021/11/20 06:21:18;;;;;;;39.08;22.02;;;;;;;;;;5049561;28;20110;-62
2021/11/20 06:23:44;;;;;;;42.50;22.17;;;;;;;;;;5051803;28;20079;-63
2021/11/20 06:26:10;;;;;;;44.00;22.75;;;;;;;;;;5054302;28;20521;-62
2021/11/20 06:28:37;;;;;;;39.60;23.27;;;;;;;;;;5049796;28;20049;-62
2021/11/20 06:31:05;;;;;;;37.40;22.70;;;;;;;;;;5054003;28;20193;-62
2021/11/20 06:33:31;;;;;;;42.50;21.58;;;;;;;;;;5055466;28;20044;-62
2021/11/20 06:35:58;;;;;;;41.05;22.13;;;;;;;;;;5051058;28;20140;-62
2021/11/20 06:38:25;;;;;;;41.70;22.10;;;;;;;;;;5052150;28;20052;-62
2021/11/20 06:40:52;;;;;;;45.95;22.95;;;;;;;;;;5051410;28;20123;-62
2021/11/20 06:43:21;;;;;;;42.40;22.70;;;;;;;;;;5051891;28;20118;-62
2021/11/20 06:45:48;;;;;;;43.85;22.15;;;;;;;;;;5050816;28;20128;-62
2021/11/20 06:48:15;;;;;;;36.92;22.30;;;;;;;;;;5047844;28;20053;-62
2021/11/20 06:50:42;;;;;;;43.80;22.83;;;;;;;;;;5047289;28;20117;-62
2021/11/20 06:53:09;;;;;;;45.42;22.50;;;;;;;;;;5050417;28;20134;-63
2021/11/20 06:55:36;;;;;;;46.85;23.05;;;;;;;;;;5051978;28;20378;-63
2021/11/20 06:58:20;;;;;;;40.75;24.23;;;;;;;;;;5051765;28;20041;-62
2021/11/20 07:00:49;;;;;;;53.22;25.45;;;;;;;;;;5047760;28;20162;-62
2021/11/20 07:03:18;;;;;;;44.42;23.75;;;;;;;;;;5052008;28;20175;-63
2021/11/20 07:05:46;;;;;;;40.50;21.98;;;;;;;;;;5050030;28;20459;-63
2021/11/20 07:08:13;;;;;;;43.55;22.10;;;;;;;;;;5050566;28;20441;-62
2021/11/20 07:10:39;;;;;;;46.92;22.65;;;;;;;;;;5051522;28;20045;-63
2021/11/20 07:13:06;;;;;;;42.20;22.27;;;;;;;;;;5051493;28;20359;-62
2021/11/20 07:15:32;;;;;;;38.03;22.45;;;;;;;;;;5051581;28;20460;-62
2021/11/20 07:17:59;;;;;;;37.08;20.30;;;;;;;;;;5051160;28;20047;-62
2021/11/20 07:20:28;;;;;;;38.30;20.33;;;;;;;;;;5052963;28;20044;-62
2021/11/20 07:22:55;;;;;;;34.65;20.38;;;;;;;;;;5050476;28;20461;-62
2021/11/20 07:25:22;;;;;;;34.70;19.20;;;;;;;;;;5050609;28;20037;-62
2021/11/20 07:27:48;;;;;;;37.53;19.55;;;;;;;;;;5051103;28;20041;-62
2021/11/20 07:30:15;;;;;;;32.03;19.02;;;;;;;;;;5049067;28;20037;-62
2021/11/20 07:32:42;;;;;;;33.40;18.60;;;;;;;;;;5051901;28;20049;-62
2021/11/20 07:35:08;;;;;;;33.50;17.83;;;;;;;;;;5049879;28;20044;-63
2021/11/20 07:37:34;;;;;;;29.38;18.17;;;;;;;;;;5052834;28;20068;-62
2021/11/20 07:40:00;;;;;;;27.50;17.92;;;;;;;;;;5047637;28;20048;-62
2021/11/20 07:42:26;;;;;;;26.70;17.58;;;;;;;;;;5050946;28;20055;-63
2021/11/20 07:44:53;;;;;;;24.55;16.75;;;;;;;;;;5051830;28;20258;-62
2021/11/20 07:47:19;;;;;;;27.05;17.73;;;;;;;;;;5052290;28;20060;-62
2021/11/20 07:49:47;;;;;;;30.98;17.98;;;;;;;;;;5048722;28;20048;-61
2021/11/20 07:52:14;;;;;;;28.63;18.02;;;;;;;;;;5047310;28;20127;-62
2021/11/20 07:54:40;;;;;;;30.38;16.23;;;;;;;;;;5051484;28;20056;-69
2021/11/20 07:57:07;;;;;;;31.80;16.73;;;;;;;;;;5050852;28;20045;-62
2021/11/20 07:59:33;;;;;;;25.30;15.75;;;;;;;;;;5049585;28;20091;-64
2021/11/20 08:02:00;;;;;;;32.60;17.25;;;;;;;;;;5048559;28;20045;-62
2021/11/20 08:04:26;;;;;;;24.38;16.25;;;;;;;;;;5047611;28;20037;-64
2021/11/20 08:06:52;;;;;;;23.40;15.88;;;;;;;;;;5051548;28;20047;-63
2021/11/20 08:09:18;;;;;;;25.45;16.42;;;;;;;;;;5033579;28;20067;-64
2021/11/20 08:11:44;;;;;;;21.92;14.35;;;;;;;;;;5040358;28;20060;-63
2021/11/20 08:14:11;;;;;;;21.52;14.93;;;;;;;;;;5043467;28;20618;-63
2021/11/20 08:16:38;;;;;;;25.05;15.32;;;;;;;;;;5044061;28;20044;-63
2021/11/20 08:19:05;;;;;;;27.02;15.38;;;;;;;;;;5036652;28;20061;-64
2021/11/20 08:21:32;;;;;;;23.88;15.48;;;;;;;;;;5037422;28;20132;-63
2021/11/20 08:23:58;;;;;;;21.92;15.27;;;;;;;;;;5040711;28;20108;-63
2021/11/20 08:26:25;;;;;;;21.65;15.18;;;;;;;;;;5039760;28;20045;-63
2021/11/20 08:28:51;;;;;;;30.10;17.02;;;;;;;;;;5045845;28;20053;-63
2021/11/20 08:31:18;;;;;;;22.92;14.80;;;;;;;;;;5044752;28;20095;-63
2021/11/20 08:33:44;;;;;;;21.25;16.25;;;;;;;;;;5049926;28;20047;-63
2021/11/20 08:36:12;;;;;;;21.25;16.73;;;;;;;;;;5047869;28;20033;-63
2021/11/20 08:38:39;;;;;;;24.20;16.65;;;;;;;;;;5046307;28;20048;-63
2021/11/20 08:41:06;;;;;;;25.50;16.95;;;;;;;;;;5053199;28;20044;-63
2021/11/20 08:43:33;;;;;;;22.02;17.67;;;;;;;;;;5051116;28;20491;-63
2021/11/20 08:46:00;;;;;;;21.88;16.50;;;;;;;;;;5050262;28;21794;-64
2021/11/20 08:48:26;;;;;;;24.52;17.27;;;;;;;;;;5048915;28;20033;-63
2021/11/20 08:50:55;;;;;;;26.55;18.58;;;;;;;;;;5049134;28;20086;-63
2021/11/20 08:53:21;;;;;;;22.02;17.25;;;;;;;;;;5048514;28;20045;-63
2021/11/20 08:55:48;;;;;;;25.48;18.02;;;;;;;;;;5053173;28;20135;-63
2021/11/20 08:58:14;;;;;;;28.88;17.23;;;;;;;;;;5048993;28;20552;-63
2021/11/20 09:00:46;;;;;;;23.23;18.13;;;;;;;;;;5051300;28;20174;-63
2021/11/20 09:03:16;;;;;;;26.27;18.20;;;;;;;;;;5050428;28;20041;-63
2021/11/20 09:05:46;;;;;;;23.63;18.80;;;;;;;;;;5050954;28;20055;-63
2021/11/20 09:08:15;;;;;;;26.02;19.50;;;;;;;;;;5049801;28;20176;-63
2021/11/20 09:10:46;;;;;;;30.92;20.92;;;;;;;;;;5050821;28;20098;-63
2021/11/20 09:13:20;;;;;;;32.30;22.50;;;;;;;;;;5044730;28;20053;-63
2021/11/20 09:15:46;;;;;;;34.40;22.45;;;;;;;;;;5046790;28;20081;-64
2021/11/20 09:18:13;;;;;;;30.00;22.80;;;;;;;;;;5044761;28;20143;-63
2021/11/20 09:20:39;;;;;;;31.08;24.02;;;;;;;;;;5045492;28;20053;-63
2021/11/20 09:23:06;;;;;;;35.95;25.42;;;;;;;;;;5044237;28;20052;-63
2021/11/20 09:25:32;;;;;;;32.50;23.58;;;;;;;;;;5044667;28;20041;-63
2021/11/20 09:27:59;;;;;;;37.90;24.90;;;;;;;;;;5048588;28;20459;-63
2021/11/20 09:30:28;;;;;;;37.40;24.98;;;;;;;;;;5048440;28;20156;-63
2021/11/20 09:32:54;;;;;;;36.97;24.23;;;;;;;;;;5049039;28;20526;-63
2021/11/20 09:35:20;;;;;;;33.22;24.60;;;;;;;;;;5047730;28;20091;-64
2021/11/20 09:37:46;;;;;;;36.67;25.90;;;;;;;;;;5051175;28;20049;-62
2021/11/20 09:40:13;;;;;;;35.00;24.85;;;;;;;;;;5052729;28;20132;-62
2021/11/20 09:42:43;;;;;;;39.83;25.45;;;;;;;;;;5050363;28;20079;-62
2021/11/20 09:45:13;;;;;;;33.47;26.00;;;;;;;;;;5052534;28;20075;-62
2021/11/20 09:47:43;;;;;;;37.17;24.75;;;;;;;;;;5052390;28;20364;-63
2021/11/20 09:50:19;;;;;;;32.13;24.23;;;;;;;;;;5049326;28;20041;-63
2021/11/20 09:52:46;;;;;;;31.77;23.48;;;;;;;;;;5051083;28;20049;-63
2021/11/20 09:55:15;;;;;;;33.47;23.08;;;;;;;;;;5051704;28;20100;-62
2021/11/20 09:57:45;;;;;;;29.02;22.77;;;;;;;;;;5050980;28;20381;-63
2021/11/20 10:00:13;;;;;;;28.40;23.23;;;;;;;;;;5050674;28;20045;-63
2021/11/20 10:02:40;;;;;;;29.60;22.25;;;;;;;;;;5050478;28;20049;-63
2021/11/20 10:05:07;;;;;;;28.92;22.13;;;;;;;;;;5052116;28;20033;-63
2021/11/20 10:07:41;;;;;;;29.35;22.55;;;;;;;;;;5052114;28;20053;-63
2021/11/20 10:10:07;;;;;;;;;;;;;;;;;;5051773;28;20561;-63
2021/11/20 10:12:39;;;;;;;31.70;22.58;;;;;;;;;;5052236;28;20225;-63
2021/11/20 10:15:11;;;;;;;29.73;21.73;;;;;;;;;;5050457;28;20041;-62
2021/11/20 10:17:41;;;;;;;26.95;21.63;;;;;;;;;;5051584;28;20063;-63
2021/11/20 10:20:15;;;;;;;30.10;21.92;;;;;;;;;;5052081;28;20037;-62
2021/11/20 10:22:51;;;;;;;30.02;22.98;;;;;;;;;;5049586;28;20049;-63
2021/11/20 10:25:33;;;;;;;31.40;22.63;;;;;;;;;;5051557;28;20124;-62
2021/11/20 10:28:02;;;;;;;31.63;24.02;;;;;;;;;;5051964;28;20059;-62
2021/11/20 10:30:38;;;;;;;31.05;23.02;;;;;;;;;;5049682;28;20132;-63
2021/11/20 10:33:12;;;;;;;34.92;23.95;;;;;;;;;;5050461;28;20037;-62
2021/11/20 10:35:44;;;;;;;29.48;21.95;;;;;;;;;;5049868;28;20556;-63
2021/11/20 10:38:21;;;;;;;32.88;23.33;;;;;;;;;;5049798;28;20144;-63
2021/11/20 10:40:54;;;;;;;31.08;23.27;;;;;;;;;;5051391;28;20044;-63
2021/11/20 10:43:26;;;;;;;33.28;25.08;;;;;;;;;;5050459;28;20504;-63
2021/11/20 10:45:55;;;;;;;31.00;22.45;;;;;;;;;;5049600;28;20048;-62
2021/11/20 10:48:35;;;;;;;32.65;24.55;;;;;;;;;;5051221;28;20489;-63
2021/11/20 10:51:19;;;;;;;35.33;24.45;;;;;;;;;;5050930;28;20037;-62
2021/11/20 10:53:51;;;;;;;33.95;24.42;;;;;;;;;;5050635;28;20378;-62
2021/11/20 10:56:28;;;;;;;32.75;25.90;;;;;;;;;;5051312;28;20041;-63
2021/11/20 10:58:54;;;;;;;36.50;25.35;;;;;;;;;;5048658;28;20127;-63
2021/11/20 11:01:23;;;;;;;38.03;26.13;;;;;;;;;;5049833;28;20059;-63
2021/11/20 11:03:57;;;;;;;34.97;25.70;;;;;;;;;;5051022;28;20076;-62
2021/11/20 11:06:28;;;;;;;38.90;27.02;;;;;;;;;;5049140;28;20048;-63
2021/11/20 11:09:12;;;;;;;34.42;24.42;;;;;;;;;;5047895;28;20115;-63
2021/11/20 11:11:41;;;;;;;35.25;24.75;;;;;;;;;;5063661;28;20079;-63
2021/11/20 11:14:19;;;;;;;36.00;25.77;;;;;;;;;;5050140;28;20366;-62
2021/11/20 11:16:48;;;;;;;34.80;24.63;;;;;;;;;;5048902;28;20087;-62
2021/11/20 11:19:33;;;;;;;34.28;23.08;;;;;;;;;;5050569;28;20124;-63
2021/11/20 11:22:18;;;;;;;35.22;22.17;;;;;;;;;;5050194;28;20461;-63
2021/11/20 11:25:02;;;;;;;29.75;21.80;;;;;;;;;;5049221;28;20453;-63
2021/11/20 11:27:45;;;;;;;29.73;21.95;;;;;;;;;;5048796;28;20047;-63
2021/11/20 11:30:20;;;;;;;32.38;20.63;;;;;;;;;;5050299;28;20457;-62
2021/11/20 11:32:46;;;;;;;26.70;20.52;;;;;;;;;;5050546;28;20055;-62
2021/11/20 11:35:22;;;;;;;31.52;21.02;;;;;;;;;;5049537;28;20033;-65
2021/11/20 11:37:56;;;;;;;34.40;21.35;;;;;;;;;;5041468;28;20048;-64
2021/11/20 11:40:42;;;;;;;32.40;21.67;;;;;;;;;;5041096;28;20044;-64
2021/11/20 11:43:09;;;;;;;26.38;19.65;;;;;;;;;;5047163;28;20505;-64
2021/11/20 11:45:48;;;;;;;28.35;19.75;;;;;;;;;;5050327;28;20457;-64
2021/11/20 11:48:15;;;;;;;32.70;21.73;;;;;;;;;;5049353;28;20051;-65
2021/11/20 11:51:07;;;;;;;31.42;20.80;;;;;;;;;;5049485;28;20076;-65
2021/11/20 11:53:52;;;;;;;27.98;19.50;;;;;;;;;;5049527;28;20107;-64
2021/11/20 11:56:27;;;;;;;32.00;21.65;;;;;;;;;;5049348;28;20067;-64
2021/11/20 11:59:02;;;;;;;29.33;19.40;;;;;;;;;;5046516;28;20080;-64
2021/11/20 12:01:40;;;;;;;35.92;20.90;;;;;;;;;;5049809;28;20052;-64
2021/11/20 12:04:10;;;;;;;26.33;18.55;;;;;;;;;;5049345;28;20037;-64
2021/11/20 12:06:42;;;;;;;25.08;18.00;;;;;;;;;;5047945;28;20067;-65
2021/11/20 12:09:26;;;;;;;29.23;17.98;;;;;;;;;;5049370;28;20053;-64
2021/11/20 12:11:53;;;;;;;25.20;17.95;;;;;;;;;;5047446;28;20516;-64
2021/11/20 12:14:34;;;;;;;24.33;17.13;;;;;;;;;;5049271;28;20044;-64
2021/11/20 12:17:04;;;;;;;27.23;18.10;;;;;;;;;;5048372;28;20119;-64
2021/11/20 12:19:30;;;;;;;28.40;17.90;;;;;;;;;;5047732;28;20069;-64
2021/11/20 12:22:00;;;;;;;23.10;17.02;;;;;;;;;;5047205;28;20460;-64
2021/11/20 12:24:26;;;;;;;22.75;15.90;;;;;;;;;;5041695;28;20056;-64
2021/11/20 12:26:56;;;;;;;26.23;15.98;;;;;;;;;;5037471;28;20477;-64
2021/11/20 12:29:58;;;;;;;24.88;15.45;;;;;;;;;;5039222;28;20463;-64
2021/11/20 12:32:42;;;;;;;23.38;15.25;;;;;;;;;;5044867;28;20086;-64
2021/11/20 12:35:16;;;;;;;20.02;14.82;;;;;;;;;;5047100;28;20404;-64
2021/11/20 12:38:01;;;;;;;27.67;15.55;;;;;;;;;;5043640;28;20053;-64
2021/11/20 12:40:34;;;;;;;23.02;16.00;;;;;;;;;;5048344;28;20515;-64
2021/11/20 12:43:01;;;;;;;;;;;;;;;;;;5048284;28;20049;-64
2021/11/20 12:45:33;;;;;;;19.65;12.98;;;;;;;;;;5044757;28;19927;-64
2021/11/20 12:48:17;;;;;;;21.13;13.90;;;;;;;;;;5051383;28;20052;-64
2021/11/20 12:50:51;;;;;;;22.25;14.48;;;;;;;;;;5049085;28;20068;-64
2021/11/20 12:53:24;;;;;;;20.52;14.15;;;;;;;;;;5049435;28;20149;-64
2021/11/20 12:56:22;;;;;;;25.50;14.52;;;;;;;;;;5047237;28;20053;-64
2021/11/20 12:58:50;;;;;;;22.52;12.85;;;;;;;;;;5047719;28;20055;-64
2021/11/20 13:01:18;;;;;;;25.52;14.52;;;;;;;;;;5047598;28;20036;-64
2021/11/20 13:03:47;;;;;;;27.70;15.63;;;;;;;;;;5049080;28;20159;-64
2021/11/20 13:06:23;;;;;;;23.15;16.08;;;;;;;;;;5048620;28;20049;-64
2021/11/20 13:08:52;;;;;;;24.27;16.65;;;;;;;;;;5048423;28;20137;-64
2021/11/20 13:11:22;;;;;;;27.88;16.95;;;;;;;;;;5050581;28;20049;-64
2021/11/20 13:13:50;;;;;;;26.35;16.50;;;;;;;;;;5050622;28;20087;-64
2021/11/20 13:16:24;;;;;;;32.78;16.30;;;;;;;;;;5050496;28;20067;-64
2021/11/20 13:19:09;;;;;;;31.35;17.08;;;;;;;;;;5052136;28;20415;-64
2021/11/20 13:21:40;;;;;;;25.35;16.27;;;;;;;;;;5050829;28;20075;-64
2021/11/20 13:24:06;;;;;;;24.00;16.42;;;;;;;;;;5052550;28;20049;-64
2021/11/20 13:26:33;;;;;;;30.88;17.80;;;;;;;;;;5049705;28;20036;-64
2021/11/20 13:29:00;;;;;;;30.75;18.33;;;;;;;;;;5053678;28;20080;-64
2021/11/20 13:31:32;;;;;;;34.47;18.48;;;;;;;;;;5051000;28;20041;-64
2021/11/20 13:33:58;;;;;;;26.77;17.40;;;;;;;;;;5051071;28;20057;-64
2021/11/20 13:36:24;;;;;;;34.10;18.83;;;;;;;;;;5051602;28;20052;-64
2021/11/20 13:38:51;;;;;;;25.83;17.10;;;;;;;;;;5051018;28;20087;-64
2021/11/20 13:41:17;;;;;;;25.85;16.10;;;;;;;;;;5049071;28;20040;-64
2021/11/20 13:43:46;;;;;;;34.20;16.52;;;;;;;;;;5052033;28;20052;-64
2021/11/20 13:46:14;;;;;;;30.42;16.65;;;;;;;;;;5055377;28;20048;-65
2021/11/20 13:48:40;;;;;;;34.45;16.15;;;;;;;;;;5052814;28;20045;-65
2021/11/20 13:51:15;;;;;;;29.42;15.85;;;;;;;;;;5051084;28;20098;-65
2021/11/20 13:53:46;;;;;;;29.23;16.55;;;;;;;;;;5051724;28;20045;-64
2021/11/20 13:56:13;;;;;;;33.05;16.00;;;;;;;;;;5050604;28;20048;-64
2021/11/20 13:58:39;;;;;;;33.67;15.20;;;;;;;;;;5049436;28;20143;-64
2021/11/20 14:01:07;;;;;;;26.23;15.15;;;;;;;;;;5052650;28;20496;-64
2021/11/20 14:03:33;;;;;;;30.88;16.05;;;;;;;;;;5050368;28;20056;-65
2021/11/20 14:06:00;;;;;;;32.78;15.80;;;;;;;;;;5052282;28;20048;-65
2021/11/20 14:08:28;;;;;;;30.90;16.35;;;;;;;;;;5050034;28;20171;-64
2021/11/20 14:10:59;;;;;;;30.73;16.38;;;;;;;;;;5051277;28;20048;-64
2021/11/20 14:13:33;;;;;;;34.78;17.38;;;;;;;;;;5052123;28;20135;-64
2021/11/20 14:16:00;;;;;;;34.03;16.63;;;;;;;;;;5048654;28;20056;-64
2021/11/20 14:18:27;;;;;;;33.20;16.77;;;;;;;;;;5049037;28;20057;-64
2021/11/20 14:20:57;;;;;;;29.13;18.08;;;;;;;;;;5052297;28;20400;-64
2021/11/20 14:23:24;;;;;;;33.42;17.85;;;;;;;;;;5050611;28;20065;-64
2021/11/20 14:25:51;;;;;;;34.30;17.27;;;;;;;;;;5054788;28;20041;-64
2021/11/20 14:28:17;;;;;;;31.25;17.67;;;;;;;;;;5050922;28;20063;-64